sensor_id;sensor_type;location;lat;lon;timestamp;pressure;altitude;pressure_sealevel;temperature;humidity
68329;BME280;55182;56.864;60.554;2023-09-30T00:00:41;74467.28;;;-143.60;100.00
68329;BME280;55182;56.864;60.554;2023-09-30T00:03:07;74465.25;;;-143.60;100.00
68329;BME280;55182;56.864;60.554;2023-09-30T00:05:32;74471.28;;;-143.60;100.00
68329;BME280;55182;56.864;60.554;2023-09-30T00:07:58;74469.28;;;-143.60;100.00
68329;BME280;55182;56.864;60.554;2023-09-30T00:10:23;74475.31;;;-143.60;100.00
68329;BME280;55182;56.864;60.554;2023-09-30T00:12:48;74479.31;;;-143.60;100.00
68329;BME280;55182;56.864;60.554;2023-09-30T00:15:14;74475.31;;;-143.60;100.00
68329;BME280;55182;56.864;60.554;2023-09-30T00:17:39;74475.31;;;-143.60;100.00
68329;BME280;55182;56.864;60.554;2023-09-30T00:20:05;74483.34;;;-143.60;100.00
68329;BME280;55182;56.864;60.554;2023-09-30T00:22:31;74479.31;;;-143.60;100.00
68329;BME280;55182;56.864;60.554;2023-09-30T00:24:56;74477.31;;;-143.60;100.00
68329;BME280;55182;56.864;60.554;2023-09-30T00:27:22;74479.31;;;-143.60;100.00
68329;BME280;55182;56.864;60.554;2023-09-30T00:29:47;74479.31;;;-143.60;100.00
68329;BME280;55182;56.864;60.554;2023-09-30T00:32:12;74479.31;;;-143.60;100.00
68329;BME280;55182;56.864;60.554;2023-09-30T00:34:38;74487.34;;;-143.60;100.00
68329;BME280;55182;56.864;60.554;2023-09-30T00:37:04;74483.34;;;-143.60;100.00
68329;BME280;55182;56.864;60.554;2023-09-30T00:39:29;74483.34;;;-143.60;100.00
68329;BME280;55182;56.864;60.554;2023-09-30T00:41:55;74487.34;;;-143.60;100.00
68329;BME280;55182;56.864;60.554;2023-09-30T00:44:20;74479.31;;;-143.60;100.00
68329;BME280;55182;56.864;60.554;2023-09-30T00:46:46;74489.38;;;-143.60;100.00
68329;BME280;55182;56.864;60.554;2023-09-30T00:49:12;74493.38;;;-143.60;100.00
68329;BME280;55182;56.864;60.554;2023-09-30T00:51:39;74497.41;;;-143.60;100.00
68329;BME280;55182;56.864;60.554;2023-09-30T00:54:04;74499.41;;;-143.60;100.00
68329;BME280;55182;56.864;60.554;2023-09-30T00:56:30;74499.41;;;-143.60;100.00
68329;BME280;55182;56.864;60.554;2023-09-30T00:58:57;74497.41;;;-143.60;100.00
68329;BME280;55182;56.864;60.554;2023-09-30T01:01:23;74499.41;;;-143.60;100.00
68329;BME280;55182;56.864;60.554;2023-09-30T01:03:48;74495.41;;;-143.60;100.00
68329;BME280;55182;56.864;60.554;2023-09-30T01:06:14;74499.41;;;-143.60;100.00
68329;BME280;55182;56.864;60.554;2023-09-30T01:08:39;74495.41;;;-143.60;100.00
68329;BME280;55182;56.864;60.554;2023-09-30T01:11:05;74499.41;;;-143.60;100.00
68329;BME280;55182;56.864;60.554;2023-09-30T01:13:31;74499.41;;;-143.60;100.00
68329;BME280;55182;56.864;60.554;2023-09-30T01:15:57;74505.44;;;-143.60;100.00
68329;BME280;55182;56.864;60.554;2023-09-30T01:18:24;74499.41;;;-143.60;100.00
68329;BME280;55182;56.864;60.554;2023-09-30T01:20:49;74505.44;;;-143.60;100.00
68329;BME280;55182;56.864;60.554;2023-09-30T01:23:15;74503.44;;;-143.60;100.00
68329;BME280;55182;56.864;60.554;2023-09-30T01:25:41;74509.44;;;-143.60;100.00
68329;BME280;55182;56.864;60.554;2023-09-30T01:28:07;74507.44;;;-143.60;100.00
68329;BME280;55182;56.864;60.554;2023-09-30T01:30:33;74507.44;;;-143.60;100.00
68329;BME280;55182;56.864;60.554;2023-09-30T01:32:59;74507.44;;;-143.60;100.00
68329;BME280;55182;56.864;60.554;2023-09-30T01:35:24;74511.47;;;-143.60;100.00
68329;BME280;55182;56.864;60.554;2023-09-30T01:37:50;74505.44;;;-143.60;100.00
68329;BME280;55182;56.864;60.554;2023-09-30T01:40:15;74511.47;;;-143.60;100.00
68329;BME280;55182;56.864;60.554;2023-09-30T01:42:41;74507.44;;;-143.60;100.00
68329;BME280;55182;56.864;60.554;2023-09-30T01:45:06;74511.47;;;-143.60;100.00
68329;BME280;55182;56.864;60.554;2023-09-30T01:47:32;74523.50;;;-143.60;100.00
68329;BME280;55182;56.864;60.554;2023-09-30T01:49:57;74521.50;;;-143.60;100.00
68329;BME280;55182;56.864;60.554;2023-09-30T01:52:23;74523.50;;;-143.60;100.00
68329;BME280;55182;56.864;60.554;2023-09-30T01:54:48;74521.50;;;-143.60;100.00
68329;BME280;55182;56.864;60.554;2023-09-30T01:57:14;74519.50;;;-143.60;100.00
68329;BME280;55182;56.864;60.554;2023-09-30T01:59:39;74529.53;;;-143.60;100.00
68329;BME280;55182;56.864;60.554;2023-09-30T02:02:05;74527.53;;;-143.60;100.00
68329;BME280;55182;56.864;60.554;2023-09-30T02:04:30;74523.50;;;-143.60;100.00
68329;BME280;55182;56.864;60.554;2023-09-30T02:06:55;74523.50;;;-143.60;100.00
68329;BME280;55182;56.864;60.554;2023-09-30T02:09:21;74531.53;;;-143.60;100.00
68329;BME280;55182;56.864;60.554;2023-09-30T02:11:46;74533.56;;;-143.60;100.00
68329;BME280;55182;56.864;60.554;2023-09-30T02:14:12;74531.53;;;-143.60;100.00
68329;BME280;55182;56.864;60.554;2023-09-30T02:16:39;74531.53;;;-143.60;100.00
68329;BME280;55182;56.864;60.554;2023-09-30T02:19:04;74535.56;;;-143.60;100.00
68329;BME280;55182;56.864;60.554;2023-09-30T02:21:29;74539.59;;;-143.60;100.00
68329;BME280;55182;56.864;60.554;2023-09-30T02:23:55;74547.63;;;-143.60;100.00
68329;BME280;55182;56.864;60.554;2023-09-30T02:26:21;74555.66;;;-143.60;100.00
68329;BME280;55182;56.864;60.554;2023-09-30T02:28:47;74553.66;;;-143.60;100.00
68329;BME280;55182;56.864;60.554;2023-09-30T02:31:13;74559.66;;;-143.60;100.00
68329;BME280;55182;56.864;60.554;2023-09-30T02:33:38;74563.69;;;-143.60;100.00
68329;BME280;55182;56.864;60.554;2023-09-30T02:36:07;74559.66;;;-143.60;100.00
68329;BME280;55182;56.864;60.554;2023-09-30T02:38:33;74563.69;;;-143.60;100.00
68329;BME280;55182;56.864;60.554;2023-09-30T02:41:01;74565.69;;;-143.60;100.00
68329;BME280;55182;56.864;60.554;2023-09-30T02:43:26;74567.72;;;-143.60;100.00
68329;BME280;55182;56.864;60.554;2023-09-30T02:45:52;74569.72;;;-143.60;100.00
68329;BME280;55182;56.864;60.554;2023-09-30T02:48:17;74575.75;;;-143.60;100.00
68329;BME280;55182;56.864;60.554;2023-09-30T02:50:43;74579.75;;;-143.60;100.00
68329;BME280;55182;56.864;60.554;2023-09-30T02:53:08;74573.72;;;-143.60;100.00
68329;BME280;55182;56.864;60.554;2023-09-30T02:55:34;74577.75;;;-143.60;100.00
68329;BME280;55182;56.864;60.554;2023-09-30T02:57:59;74583.78;;;-143.60;100.00
68329;BME280;55182;56.864;60.554;2023-09-30T03:00:24;74581.75;;;-143.60;100.00
68329;BME280;55182;56.864;60.554;2023-09-30T03:02:51;74581.75;;;-143.60;100.00
68329;BME280;55182;56.864;60.554;2023-09-30T03:05:17;74581.75;;;-143.60;100.00
68329;BME280;55182;56.864;60.554;2023-09-30T03:07:42;74587.78;;;-143.60;100.00
68329;BME280;55182;56.864;60.554;2023-09-30T03:10:08;74595.81;;;-143.60;100.00
68329;BME280;55182;56.864;60.554;2023-09-30T03:12:34;74595.81;;;-143.60;100.00
68329;BME280;55182;56.864;60.554;2023-09-30T03:14:59;74597.84;;;-143.60;100.00
68329;BME280;55182;56.864;60.554;2023-09-30T03:17:25;74593.81;;;-143.60;100.00
68329;BME280;55182;56.864;60.554;2023-09-30T03:19:50;74595.81;;;-143.60;100.00
68329;BME280;55182;56.864;60.554;2023-09-30T03:22:16;74599.84;;;-143.60;100.00
68329;BME280;55182;56.864;60.554;2023-09-30T03:24:41;74603.84;;;-143.60;100.00
68329;BME280;55182;56.864;60.554;2023-09-30T03:27:07;74603.84;;;-143.60;100.00
68329;BME280;55182;56.864;60.554;2023-09-30T03:29:33;74603.84;;;-143.60;100.00
68329;BME280;55182;56.864;60.554;2023-09-30T03:32:00;74607.88;;;-143.60;100.00
68329;BME280;55182;56.864;60.554;2023-09-30T03:34:25;74611.91;;;-143.60;100.00
68329;BME280;55182;56.864;60.554;2023-09-30T03:36:51;74611.91;;;-143.60;100.00
68329;BME280;55182;56.864;60.554;2023-09-30T03:39:16;74611.91;;;-143.60;100.00
68329;BME280;55182;56.864;60.554;2023-09-30T03:41:42;74609.88;;;-143.60;100.00
68329;BME280;55182;56.864;60.554;2023-09-30T03:44:07;74611.91;;;-143.60;100.00
68329;BME280;55182;56.864;60.554;2023-09-30T03:46:33;74613.91;;;-143.60;100.00
68329;BME280;55182;56.864;60.554;2023-09-30T03:48:58;74615.91;;;-143.60;100.00
68329;BME280;55182;56.864;60.554;2023-09-30T03:51:24;74615.91;;;-143.60;100.00
68329;BME280;55182;56.864;60.554;2023-09-30T03:53:49;74615.91;;;-143.60;100.00
68329;BME280;55182;56.864;60.554;2023-09-30T03:56:14;74615.91;;;-143.60;100.00
68329;BME280;55182;56.864;60.554;2023-09-30T03:58:41;74613.91;;;-143.60;100.00
68329;BME280;55182;56.864;60.554;2023-09-30T04:01:06;74621.94;;;-143.60;100.00
68329;BME280;55182;56.864;60.554;2023-09-30T04:03:32;74617.91;;;-143.60;100.00
68329;BME280;55182;56.864;60.554;2023-09-30T04:05:57;74619.94;;;-143.60;100.00
68329;BME280;55182;56.864;60.554;2023-09-30T04:08:23;74623.94;;;-143.60;100.00
68329;BME280;55182;56.864;60.554;2023-09-30T04:10:48;74621.94;;;-143.60;100.00
68329;BME280;55182;56.864;60.554;2023-09-30T04:13:13;74627.97;;;-143.60;100.00
68329;BME280;55182;56.864;60.554;2023-09-30T04:15:39;74627.97;;;-143.60;100.00
68329;BME280;55182;56.864;60.554;2023-09-30T04:18:04;74625.97;;;-143.60;100.00
68329;BME280;55182;56.864;60.554;2023-09-30T04:20:30;74627.97;;;-143.60;100.00
68329;BME280;55182;56.864;60.554;2023-09-30T04:22:55;74642.03;;;-143.60;100.00
68329;BME280;55182;56.864;60.554;2023-09-30T04:25:21;74638.00;;;-143.60;100.00
68329;BME280;55182;56.864;60.554;2023-09-30T04:27:46;74640.03;;;-143.60;100.00
68329;BME280;55182;56.864;60.554;2023-09-30T04:30:12;74644.03;;;-143.60;100.00
68329;BME280;55182;56.864;60.554;2023-09-30T04:32:37;74656.09;;;-143.60;100.00
68329;BME280;55182;56.864;60.554;2023-09-30T04:35:03;74670.16;;;-143.60;100.00
68329;BME280;55182;56.864;60.554;2023-09-30T04:37:29;74700.28;;;-143.60;100.00
68329;BME280;55182;56.864;60.554;2023-09-30T04:39:54;74718.34;;;-143.60;100.00
68329;BME280;55182;56.864;60.554;2023-09-30T04:42:20;74740.47;;;-143.60;100.00
68329;BME280;55182;56.864;60.554;2023-09-30T04:44:45;74734.44;;;-143.60;100.00
68329;BME280;55182;56.864;60.554;2023-09-30T04:47:12;74752.50;;;-143.60;100.00
68329;BME280;55182;56.864;60.554;2023-09-30T04:49:37;74760.53;;;-143.60;100.00
68329;BME280;55182;56.864;60.554;2023-09-30T04:52:03;74766.56;;;-143.60;100.00
68329;BME280;55182;56.864;60.554;2023-09-30T04:54:28;74780.63;;;-143.60;100.00
68329;BME280;55182;56.864;60.554;2023-09-30T04:56:54;74784.66;;;-143.60;100.00
68329;BME280;55182;56.864;60.554;2023-09-30T04:59:19;74796.69;;;-143.60;100.00
68329;BME280;55182;56.864;60.554;2023-09-30T05:01:45;74812.78;;;-143.60;100.00
68329;BME280;55182;56.864;60.554;2023-09-30T05:04:10;74812.78;;;-143.60;100.00
68329;BME280;55182;56.864;60.554;2023-09-30T05:06:35;74816.78;;;-143.60;100.00
68329;BME280;55182;56.864;60.554;2023-09-30T05:09:02;74824.81;;;-143.60;100.00
68329;BME280;55182;56.864;60.554;2023-09-30T05:11:27;74832.88;;;-143.60;100.00
68329;BME280;55182;56.864;60.554;2023-09-30T05:13:53;74836.88;;;-143.60;100.00
68329;BME280;55182;56.864;60.554;2023-09-30T05:16:18;74848.94;;;-143.60;100.00
68329;BME280;55182;56.864;60.554;2023-09-30T05:18:44;74844.91;;;-143.60;100.00
68329;BME280;55182;56.864;60.554;2023-09-30T05:21:09;74863.00;;;-143.60;100.00
68329;BME280;55182;56.864;60.554;2023-09-30T05:23:34;74871.03;;;-143.60;100.00
68329;BME280;55182;56.864;60.554;2023-09-30T05:26:00;74863.00;;;-143.60;100.00
68329;BME280;55182;56.864;60.554;2023-09-30T05:28:25;74881.06;;;-143.60;100.00
68329;BME280;55182;56.864;60.554;2023-09-30T05:30:51;74873.03;;;-143.60;100.00
68329;BME280;55182;56.864;60.554;2023-09-30T05:33:16;74871.03;;;-143.60;100.00
68329;BME280;55182;56.864;60.554;2023-09-30T05:35:42;74875.03;;;-143.60;100.00
68329;BME280;55182;56.864;60.554;2023-09-30T05:38:08;74883.09;;;-143.60;100.00
68329;BME280;55182;56.864;60.554;2023-09-30T05:40:33;74897.16;;;-143.60;100.00
68329;BME280;55182;56.864;60.554;2023-09-30T05:42:59;74917.22;;;-143.60;100.00
68329;BME280;55182;56.864;60.554;2023-09-30T05:45:25;74921.25;;;-143.60;100.00
68329;BME280;55182;56.864;60.554;2023-09-30T05:47:50;74923.25;;;-143.60;100.00
68329;BME280;55182;56.864;60.554;2023-09-30T05:50:16;74933.31;;;-143.60;100.00
68329;BME280;55182;56.864;60.554;2023-09-30T05:52:44;74941.34;;;-143.60;100.00
68329;BME280;55182;56.864;60.554;2023-09-30T05:55:10;74937.31;;;-143.60;100.00
68329;BME280;55182;56.864;60.554;2023-09-30T05:57:35;74925.28;;;-143.60;100.00
68329;BME280;55182;56.864;60.554;2023-09-30T06:00:01;74943.34;;;-143.60;100.00
68329;BME280;55182;56.864;60.554;2023-09-30T06:02:26;74941.34;;;-143.60;100.00
68329;BME280;55182;56.864;60.554;2023-09-30T06:04:54;74953.41;;;-143.60;100.00
68329;BME280;55182;56.864;60.554;2023-09-30T06:07:19;74955.41;;;-143.60;100.00
68329;BME280;55182;56.864;60.554;2023-09-30T06:09:44;74945.34;;;-143.60;100.00
68329;BME280;55182;56.864;60.554;2023-09-30T06:12:10;74957.41;;;-143.60;100.00
68329;BME280;55182;56.864;60.554;2023-09-30T06:14:35;74953.41;;;-143.60;100.00
68329;BME280;55182;56.864;60.554;2023-09-30T06:17:01;74961.44;;;-143.60;100.00
68329;BME280;55182;56.864;60.554;2023-09-30T06:19:26;74949.38;;;-143.60;100.00
68329;BME280;55182;56.864;60.554;2023-09-30T06:21:52;74965.44;;;-143.60;100.00
68329;BME280;55182;56.864;60.554;2023-09-30T06:24:17;74969.47;;;-143.60;100.00
68329;BME280;55182;56.864;60.554;2023-09-30T06:26:43;74969.47;;;-143.60;100.00
68329;BME280;55182;56.864;60.554;2023-09-30T06:29:08;74985.53;;;-143.60;100.00
68329;BME280;55182;56.864;60.554;2023-09-30T06:31:33;74997.59;;;-143.60;100.00
68329;BME280;55182;56.864;60.554;2023-09-30T06:33:59;74993.56;;;-143.60;100.00
68329;BME280;55182;56.864;60.554;2023-09-30T06:36:24;75005.63;;;-143.60;100.00
68329;BME280;55182;56.864;60.554;2023-09-30T06:38:50;75007.63;;;-143.60;100.00
68329;BME280;55182;56.864;60.554;2023-09-30T06:41:16;75005.63;;;-143.60;100.00
68329;BME280;55182;56.864;60.554;2023-09-30T06:43:41;75007.63;;;-143.60;100.00
68329;BME280;55182;56.864;60.554;2023-09-30T06:46:07;75017.69;;;-143.60;100.00
68329;BME280;55182;56.864;60.554;2023-09-30T06:48:33;75029.72;;;-143.60;100.00
68329;BME280;55182;56.864;60.554;2023-09-30T06:50:59;75031.75;;;-143.60;100.00
68329;BME280;55182;56.864;60.554;2023-09-30T06:53:24;75025.72;;;-143.60;100.00
68329;BME280;55182;56.864;60.554;2023-09-30T06:55:49;75021.69;;;-143.60;100.00
68329;BME280;55182;56.864;60.554;2023-09-30T06:58:15;75015.66;;;-143.60;100.00
68329;BME280;55182;56.864;60.554;2023-09-30T07:00:41;75019.69;;;-143.60;100.00
68329;BME280;55182;56.864;60.554;2023-09-30T07:03:06;75021.69;;;-143.60;100.00
68329;BME280;55182;56.864;60.554;2023-09-30T07:05:32;75023.69;;;-143.60;100.00
68329;BME280;55182;56.864;60.554;2023-09-30T07:07:57;75029.72;;;-143.60;100.00
68329;BME280;55182;56.864;60.554;2023-09-30T07:10:23;75025.72;;;-143.60;100.00
68329;BME280;55182;56.864;60.554;2023-09-30T07:12:48;75025.72;;;-143.60;100.00
68329;BME280;55182;56.864;60.554;2023-09-30T07:15:14;75025.72;;;-143.60;100.00
68329;BME280;55182;56.864;60.554;2023-09-30T07:17:39;75017.69;;;-143.60;100.00
68329;BME280;55182;56.864;60.554;2023-09-30T07:20:05;75031.75;;;-143.60;100.00
68329;BME280;55182;56.864;60.554;2023-09-30T07:22:31;75025.72;;;-143.60;100.00
68329;BME280;55182;56.864;60.554;2023-09-30T07:24:57;75041.78;;;-143.60;100.00
68329;BME280;55182;56.864;60.554;2023-09-30T07:27:23;75043.78;;;-143.60;100.00
68329;BME280;55182;56.864;60.554;2023-09-30T07:29:48;75045.81;;;-143.60;100.00
68329;BME280;55182;56.864;60.554;2023-09-30T07:32:14;75047.81;;;-143.60;100.00
68329;BME280;55182;56.864;60.554;2023-09-30T07:34:40;75051.81;;;-143.60;100.00
68329;BME280;55182;56.864;60.554;2023-09-30T07:37:05;75069.91;;;-143.60;100.00
68329;BME280;55182;56.864;60.554;2023-09-30T07:39:31;75073.94;;;-143.60;100.00
68329;BME280;55182;56.864;60.554;2023-09-30T07:41:56;75073.94;;;-143.60;100.00
68329;BME280;55182;56.864;60.554;2023-09-30T07:44:21;75075.94;;;-143.60;100.00
68329;BME280;55182;56.864;60.554;2023-09-30T07:46:47;75077.94;;;-143.60;100.00
68329;BME280;55182;56.864;60.554;2023-09-30T07:49:12;75077.94;;;-143.60;100.00
68329;BME280;55182;56.864;60.554;2023-09-30T07:51:38;75081.97;;;-143.60;100.00
68329;BME280;55182;56.864;60.554;2023-09-30T07:54:03;75090.00;;;-143.60;100.00
68329;BME280;55182;56.864;60.554;2023-09-30T07:56:29;75096.03;;;-143.60;100.00
68329;BME280;55182;56.864;60.554;2023-09-30T07:58:54;75098.03;;;-143.60;100.00
68329;BME280;55182;56.864;60.554;2023-09-30T08:01:20;75094.00;;;-143.60;100.00
68329;BME280;55182;56.864;60.554;2023-09-30T08:03:45;75098.03;;;-143.60;100.00
68329;BME280;55182;56.864;60.554;2023-09-30T08:06:10;75100.03;;;-143.60;100.00
68329;BME280;55182;56.864;60.554;2023-09-30T08:08:36;75092.00;;;-143.60;100.00
68329;BME280;55182;56.864;60.554;2023-09-30T08:11:01;75090.00;;;-143.60;100.00
68329;BME280;55182;56.864;60.554;2023-09-30T08:13:27;75102.06;;;-143.60;100.00
68329;BME280;55182;56.864;60.554;2023-09-30T08:15:52;75100.03;;;-143.60;100.00
68329;BME280;55182;56.864;60.554;2023-09-30T08:18:18;75110.09;;;-143.60;100.00
68329;BME280;55182;56.864;60.554;2023-09-30T08:20:43;75098.03;;;-143.60;100.00
68329;BME280;55182;56.864;60.554;2023-09-30T08:23:09;75098.03;;;-143.60;100.00
68329;BME280;55182;56.864;60.554;2023-09-30T08:25:34;75102.06;;;-143.60;100.00
68329;BME280;55182;56.864;60.554;2023-09-30T08:27:59;75098.03;;;-143.60;100.00
68329;BME280;55182;56.864;60.554;2023-09-30T08:30:25;75102.06;;;-143.60;100.00
68329;BME280;55182;56.864;60.554;2023-09-30T08:32:50;75102.06;;;-143.60;100.00
68329;BME280;55182;56.864;60.554;2023-09-30T08:35:16;75102.06;;;-143.60;100.00
68329;BME280;55182;56.864;60.554;2023-09-30T08:37:41;75106.06;;;-143.60;100.00
68329;BME280;55182;56.864;60.554;2023-09-30T08:40:07;75098.03;;;-143.60;100.00
68329;BME280;55182;56.864;60.554;2023-09-30T08:42:32;75094.00;;;-143.60;100.00
68329;BME280;55182;56.864;60.554;2023-09-30T08:44:58;75098.03;;;-143.60;100.00
68329;BME280;55182;56.864;60.554;2023-09-30T08:47:25;75092.00;;;-143.60;100.00
68329;BME280;55182;56.864;60.554;2023-09-30T08:49:51;75090.00;;;-143.60;100.00
68329;BME280;55182;56.864;60.554;2023-09-30T08:52:17;75090.00;;;-143.60;100.00
68329;BME280;55182;56.864;60.554;2023-09-30T08:54:43;75083.97;;;-143.60;100.00
68329;BME280;55182;56.864;60.554;2023-09-30T08:57:09;75085.97;;;-143.60;100.00
68329;BME280;55182;56.864;60.554;2023-09-30T08:59:35;75083.97;;;-143.60;100.00
68329;BME280;55182;56.864;60.554;2023-09-30T09:02:00;75073.94;;;-143.60;100.00
68329;BME280;55182;56.864;60.554;2023-09-30T09:04:26;75077.94;;;-143.60;100.00
68329;BME280;55182;56.864;60.554;2023-09-30T09:06:53;75081.97;;;-143.60;100.00
68329;BME280;55182;56.864;60.554;2023-09-30T09:09:18;75088.00;;;-143.60;100.00
68329;BME280;55182;56.864;60.554;2023-09-30T09:11:44;75088.00;;;-143.60;100.00
68329;BME280;55182;56.864;60.554;2023-09-30T09:14:09;75085.97;;;-143.60;100.00
68329;BME280;55182;56.864;60.554;2023-09-30T09:16:35;75069.91;;;-143.60;100.00
68329;BME280;55182;56.864;60.554;2023-09-30T09:19:12;75085.97;;;-143.60;100.00
68329;BME280;55182;56.864;60.554;2023-09-30T09:21:38;75081.97;;;-143.60;100.00
68329;BME280;55182;56.864;60.554;2023-09-30T09:24:03;75071.91;;;-143.60;100.00
68329;BME280;55182;56.864;60.554;2023-09-30T09:26:30;75069.91;;;-143.60;100.00
68329;BME280;55182;56.864;60.554;2023-09-30T09:29:00;75073.94;;;-143.60;100.00
68329;BME280;55182;56.864;60.554;2023-09-30T09:31:35;75065.88;;;-143.60;100.00
68329;BME280;55182;56.864;60.554;2023-09-30T09:34:01;75057.84;;;-143.60;100.00
68329;BME280;55182;56.864;60.554;2023-09-30T09:36:39;75053.84;;;-143.60;100.00
68329;BME280;55182;56.864;60.554;2023-09-30T09:39:06;75051.81;;;-143.60;99.87
68329;BME280;55182;56.864;60.554;2023-09-30T09:41:31;75057.84;;;-143.60;99.07
68329;BME280;55182;56.864;60.554;2023-09-30T09:43:56;75065.88;;;-143.60;98.55
68329;BME280;55182;56.864;60.554;2023-09-30T09:46:24;75065.88;;;-143.60;98.82
68329;BME280;55182;56.864;60.554;2023-09-30T09:48:49;75063.88;;;-143.60;99.03
68329;BME280;55182;56.864;60.554;2023-09-30T09:51:15;75059.88;;;-143.60;99.16
68329;BME280;55182;56.864;60.554;2023-09-30T09:53:41;75057.84;;;-143.60;98.79
68329;BME280;55182;56.864;60.554;2023-09-30T09:56:10;75053.84;;;-143.60;97.45
68329;BME280;55182;56.864;60.554;2023-09-30T09:58:35;75053.84;;;-143.60;96.90
68329;BME280;55182;56.864;60.554;2023-09-30T10:01:01;75057.84;;;-143.60;97.25
68329;BME280;55182;56.864;60.554;2023-09-30T10:03:27;75049.81;;;-143.60;97.42
68329;BME280;55182;56.864;60.554;2023-09-30T10:05:52;75049.81;;;-143.60;97.40
68329;BME280;55182;56.864;60.554;2023-09-30T10:08:19;75043.78;;;-143.60;97.98
68329;BME280;55182;56.864;60.554;2023-09-30T10:10:45;75069.91;;;-143.60;96.39
68329;BME280;55182;56.864;60.554;2023-09-30T10:15:55;75081.97;;;-143.60;96.53
68329;BME280;55182;56.864;60.554;2023-09-30T10:18:21;75085.97;;;-143.60;96.70
68329;BME280;55182;56.864;60.554;2023-09-30T10:20:46;75083.97;;;-143.60;96.51
68329;BME280;55182;56.864;60.554;2023-09-30T10:25:44;75098.03;;;-143.60;96.82
68329;BME280;55182;56.864;60.554;2023-09-30T10:36:29;75098.03;;;-143.60;97.50
68329;BME280;55182;56.864;60.554;2023-09-30T10:38:55;75118.13;;;-143.60;96.95
68329;BME280;55182;56.864;60.554;2023-09-30T10:46:48;75134.19;;;-143.60;98.29
68329;BME280;55182;56.864;60.554;2023-09-30T10:49:14;75140.22;;;-143.60;97.88
68329;BME280;55182;56.864;60.554;2023-09-30T10:51:40;75140.22;;;-143.60;98.37
68329;BME280;55182;56.864;60.554;2023-09-30T10:54:06;75146.25;;;-143.60;97.72
68329;BME280;55182;56.864;60.554;2023-09-30T10:56:32;75150.25;;;-143.60;98.11
68329;BME280;55182;56.864;60.554;2023-09-30T10:58:58;75144.25;;;-143.60;98.30
68329;BME280;55182;56.864;60.554;2023-09-30T11:01:23;75142.22;;;-143.60;98.54
68329;BME280;55182;56.864;60.554;2023-09-30T11:03:49;75138.22;;;-143.60;98.48
68329;BME280;55182;56.864;60.554;2023-09-30T11:06:16;75132.19;;;-143.60;98.32
68329;BME280;55182;56.864;60.554;2023-09-30T11:08:44;75122.13;;;-143.60;98.37
68329;BME280;55182;56.864;60.554;2023-09-30T11:11:09;75124.16;;;-143.60;98.16
68329;BME280;55182;56.864;60.554;2023-09-30T11:13:35;75124.16;;;-143.60;96.95
68329;BME280;55182;56.864;60.554;2023-09-30T11:16:02;75134.19;;;-143.60;97.50
68329;BME280;55182;56.864;60.554;2023-09-30T11:18:28;75132.19;;;-143.60;97.62
68329;BME280;55182;56.864;60.554;2023-09-30T11:21:02;75140.22;;;-143.60;97.29
68329;BME280;55182;56.864;60.554;2023-09-30T11:23:29;75142.22;;;-143.60;97.49
68329;BME280;55182;56.864;60.554;2023-09-30T11:25:54;75138.22;;;-143.60;97.54
68329;BME280;55182;56.864;60.554;2023-09-30T11:28:19;75126.16;;;-143.60;97.87
68329;BME280;55182;56.864;60.554;2023-09-30T11:33:22;75126.16;;;-143.60;96.97
68329;BME280;55182;56.864;60.554;2023-09-30T11:38:23;75118.13;;;-143.60;96.97
68329;BME280;55182;56.864;60.554;2023-09-30T11:41:01;75126.16;;;-143.60;96.56
68329;BME280;55182;56.864;60.554;2023-09-30T11:43:26;75142.22;;;-143.60;96.34
68329;BME280;55182;56.864;60.554;2023-09-30T11:45:51;75154.28;;;-143.60;97.16
68329;BME280;55182;56.864;60.554;2023-09-30T11:48:20;75162.31;;;-143.60;96.89
68329;BME280;55182;56.864;60.554;2023-09-30T11:50:49;75162.31;;;-143.60;96.81
68329;BME280;55182;56.864;60.554;2023-09-30T11:53:17;75166.34;;;-143.60;96.93
68329;BME280;55182;56.864;60.554;2023-09-30T11:55:42;75164.34;;;-143.60;96.37
68329;BME280;55182;56.864;60.554;2023-09-30T11:58:08;75162.31;;;-143.60;96.63
68329;BME280;55182;56.864;60.554;2023-09-30T12:00:33;75168.34;;;-143.60;96.94
68329;BME280;55182;56.864;60.554;2023-09-30T12:02:59;75166.34;;;-143.60;96.75
68329;BME280;55182;56.864;60.554;2023-09-30T12:05:24;75166.34;;;-143.60;96.99
68329;BME280;55182;56.864;60.554;2023-09-30T12:07:50;75160.31;;;-143.60;97.06
68329;BME280;55182;56.864;60.554;2023-09-30T12:10:15;75154.28;;;-143.60;97.05
68329;BME280;55182;56.864;60.554;2023-09-30T12:12:41;75150.25;;;-143.60;96.63
68329;BME280;55182;56.864;60.554;2023-09-30T12:15:06;75158.31;;;-143.60;96.53
68329;BME280;55182;56.864;60.554;2023-09-30T12:17:32;75168.34;;;-143.60;96.05
68329;BME280;55182;56.864;60.554;2023-09-30T12:19:57;75174.38;;;-143.60;96.53
68329;BME280;55182;56.864;60.554;2023-09-30T12:22:23;75162.31;;;-143.60;96.92
68329;BME280;55182;56.864;60.554;2023-09-30T12:24:48;75166.34;;;-143.60;97.43
68329;BME280;55182;56.864;60.554;2023-09-30T12:27:13;75160.31;;;-143.60;97.65
68329;BME280;55182;56.864;60.554;2023-09-30T12:29:39;75162.31;;;-143.60;97.74
68329;BME280;55182;56.864;60.554;2023-09-30T12:32:04;75160.31;;;-143.60;97.55
68329;BME280;55182;56.864;60.554;2023-09-30T12:34:30;75156.28;;;-143.60;97.36
68329;BME280;55182;56.864;60.554;2023-09-30T12:36:55;75154.28;;;-143.60;97.19
68329;BME280;55182;56.864;60.554;2023-09-30T12:39:21;75152.28;;;-143.60;97.20